Time;durP1;ratioP1;P1;durP2;ratioP2;P2;SDS_P1;SDS_P2;PMS_P1;PMS_P2;Temp;Humidity;BMP_temperature;BMP_pressure;BME280_temperature;BME280_humidity;BME280_pressure;Samples;Min_cycle;Max_cycle;Signal;HPM_P1;HPM_P2
2021/12/07 00:01:09;;;;;;;33.70;16.45;;;;;;;-0.16;100.00;100487.22;5060381;28;20112;-84
2021/12/07 00:03:34;;;;;;;31.33;16.38;;;;;;;-0.18;100.00;100495.72;5061861;28;20044;-84
2021/12/07 00:06:01;;;;;;;36.58;16.70;;;;;;;-0.15;100.00;100506.00;5051205;28;20111;-85
2021/12/07 00:08:28;;;;;;;36.55;16.23;;;;;;;-0.13;100.00;100514.56;5067508;28;20024;-85
2021/12/07 00:10:53;;;;;;;37.90;18.95;;;;;;;-0.15;100.00;100506.88;5062669;28;20086;-85
2021/12/07 00:13:19;;;;;;;39.90;19.13;;;;;;;-0.15;100.00;100513.69;5050625;28;20025;-84
2021/12/07 00:15:46;;;;;;;39.80;18.05;;;;;;;-0.12;100.00;100509.47;5067163;28;20119;-85
2021/12/07 00:18:12;;;;;;;44.70;18.58;;;;;;;-0.12;100.00;100509.47;5071012;28;20120;-84
2021/12/07 00:20:37;;;;;;;44.05;19.83;;;;;;;-0.06;100.00;100521.53;5070226;28;20519;-85
2021/12/07 00:23:08;;;;;;;50.03;20.90;;;;;;;-0.07;100.00;100515.50;5061228;28;20063;-85
2021/12/07 00:25:34;;;;;;;45.88;19.25;;;;;;;0.00;100.00;100526.75;5053042;28;20472;-84
2021/12/07 00:28:00;;;;;;;50.67;21.08;;;;;;;-0.02;100.00;100519.00;5071777;28;20036;-85
2021/12/07 00:30:30;;;;;;;56.33;21.73;;;;;;;0.02;100.00;100522.47;5061734;28;20045;-85
2021/12/07 00:33:10;;;;;;;58.45;22.52;;;;;;;0.07;100.00;100522.56;5051922;28;20078;-85
2021/12/07 00:35:36;;;;;;;60.58;22.52;;;;;;;0.09;100.00;100524.28;5069177;28;20032;-85
2021/12/07 00:38:12;;;;;;;59.35;23.48;;;;;;;0.15;100.00;100528.63;5071026;28;20437;-85
2021/12/07 00:40:39;;;;;;;55.47;23.98;;;;;;;0.16;100.00;100538.03;5070385;28;20077;-85
2021/12/07 00:43:05;;;;;;;61.38;23.42;;;;;;;0.20;100.00;100545.81;5070103;28;20032;-85
2021/12/07 00:45:33;;;;;;;73.32;27.33;;;;;;;0.26;100.00;100541.59;5068656;28;20044;-85
2021/12/07 00:47:58;;;;;;;67.00;26.90;;;;;;;0.33;100.00;100557.09;5061039;28;20067;-85
2021/12/07 00:50:25;;;;;;;73.93;27.38;;;;;;;0.40;100.00;100558.06;5055017;28;20076;-85
2021/12/07 00:52:51;;;;;;;85.25;28.00;;;;;;;0.44;100.00;100554.69;5055684;28;20498;-86
2021/12/07 00:55:21;;;;;;;78.45;28.00;;;;;;;0.49;100.00;100568.44;5054007;28;20133;-85
2021/12/07 00:57:51;;;;;;;82.97;28.60;;;;;;;0.59;100.00;100571.94;5061996;28;20028;-86
2021/12/07 01:00:17;;;;;;;89.30;30.80;;;;;;;0.67;100.00;100571.22;5074345;28;20025;-86
2021/12/07 01:02:42;;;;;;;91.60;31.67;;;;;;;0.72;100.00;100560.13;5074150;28;20025;-85
2021/12/07 01:05:22;;;;;;;96.80;31.45;;;;;;;0.81;100.00;100573.94;5077429;28;20024;-85
2021/12/07 01:26:38;;;;;;;79.55;27.73;;;;;;;1.26;100.00;100605.25;5070056;28;20044;-85
2021/12/07 01:29:03;;;;;;;86.63;27.52;;;;;;;1.32;100.00;100619.03;5071563;28;20016;-85
2021/12/07 01:31:36;;;;;;;82.97;27.77;;;;;;;1.37;100.00;100619.06;5058266;28;20040;-85
2021/12/07 01:39:46;;;;;;;68.95;22.65;;;;;;;1.34;100.00;100626.72;5058406;28;20029;-86
2021/12/07 01:47:59;;;;;;;66.60;22.63;;;;;;;1.29;100.00;100639.53;5079629;28;20032;-85
2021/12/07 01:50:38;;;;;;;72.53;22.58;;;;;;;1.37;100.00;100645.66;5074413;28;20515;-86
2021/12/07 01:53:16;;;;;;;81.40;21.90;;;;;;;1.39;100.00;100640.50;5071238;28;20098;-85
2021/12/07 02:01:05;;;;;;;56.60;17.95;;;;;;;1.40;100.00;100660.19;5071936;28;19916;-85
2021/12/07 02:03:30;;;;;;;63.42;18.05;;;;;;;1.40;100.00;100653.34;5061591;28;20037;-85
2021/12/07 02:05:56;;;;;;;70.75;19.17;;;;;;;1.44;100.00;100655.94;5065609;28;20040;-86
2021/12/07 02:08:23;;;;;;;57.75;18.08;;;;;;;1.46;100.00;100664.56;5073383;28;20031;-85
2021/12/07 02:10:50;;;;;;;63.20;17.75;;;;;;;1.39;100.00;100673.91;5060961;28;20049;-86
2021/12/07 02:15:56;;;;;;;55.13;15.70;;;;;;;1.42;100.00;100689.34;5063542;28;20033;-86
2021/12/07 02:18:23;;;;;;;60.05;14.80;;;;;;;1.37;100.00;100678.16;5061924;28;20441;-86
2021/12/07 02:20:50;;;;;;;59.72;15.02;;;;;;;1.43;100.00;100690.19;5068557;28;20186;-85
2021/12/07 02:23:16;;;;;;;55.70;14.68;;;;;;;1.43;100.00;100691.06;5074676;28;20110;-86
2021/12/07 02:25:42;;;;;;;46.40;13.45;;;;;;;1.50;100.00;100692.00;5078824;28;20461;-86
2021/12/07 02:28:13;;;;;;;48.28;11.80;;;;;;;1.50;100.00;100702.28;5064249;28;20031;-86
2021/12/07 02:30:38;;;;;;;49.75;11.50;;;;;;;1.47;100.00;100692.84;5062962;28;20057;-86
2021/12/07 02:33:03;;;;;;;46.55;11.05;;;;;;;1.50;100.00;100699.69;5069747;28;20103;-86
2021/12/07 02:35:29;;;;;;;47.75;11.38;;;;;;;1.47;100.00;100697.09;5062341;28;20102;-86
2021/12/07 02:37:57;;;;;;;48.25;10.75;;;;;;;1.47;100.00;100715.97;5068839;28;20411;-85
2021/12/07 02:40:22;;;;;;;43.03;10.60;;;;;;;1.47;100.00;100715.97;5063707;28;20094;-86
2021/12/07 02:42:48;;;;;;;40.85;10.43;;;;;;;1.43;100.00;100708.19;5058877;28;20472;-86
2021/12/07 02:45:14;;;;;;;50.20;9.93;;;;;;;1.40;100.00;100724.41;5072217;28;20020;-86
2021/12/07 02:47:40;;;;;;;45.97;9.82;;;;;;;1.33;100.00;100730.34;5066167;28;20385;-86
2021/12/07 02:50:07;;;;;;;42.85;10.00;;;;;;;1.29;100.00;100729.44;5066040;28;20031;-86
2021/12/07 02:52:32;;;;;;;38.58;9.30;;;;;;;1.26;100.00;100734.53;5070890;28;20028;-86
2021/12/07 02:54:58;;;;;;;40.05;9.15;;;;;;;1.20;100.00;100741.28;5071831;28;20034;-86
2021/12/07 02:57:24;;;;;;;38.55;8.60;;;;;;;1.17;100.00;100747.25;5057246;28;20114;-86
2021/12/07 02:59:59;;;;;;;39.08;8.20;;;;;;;1.10;100.00;100748.88;5064947;28;20128;-86
2021/12/07 03:02:24;;;;;;;38.45;8.38;;;;;;;1.13;100.00;100756.63;5076022;28;20049;-85
2021/12/07 03:05:10;;;;;;;33.80;8.38;;;;;;;1.13;100.00;100763.47;5063577;28;20527;-86
2021/12/07 03:08:05;;;;;;;41.20;8.70;;;;;;;1.12;100.00;100757.47;5052370;28;20051;-86
2021/12/07 03:26:37;;;;;;;35.67;6.83;;;;;;;1.04;100.00;100784.72;5052127;28;19920;-85
2021/12/07 03:29:03;;;;;;;35.45;7.55;;;;;;;1.09;100.00;100783.09;5067076;28;20643;-86
2021/12/07 03:31:30;;;;;;;35.60;7.65;;;;;;;1.03;100.00;100787.28;5059200;28;20035;-86
2021/12/07 03:33:58;;;;;;;31.85;7.50;;;;;;;0.96;100.00;100790.59;5059214;28;20029;-86
2021/12/07 03:36:24;;;;;;;29.98;6.85;;;;;;;1.02;100.00;100789.00;5070606;28;20495;-86
2021/12/07 03:38:50;;;;;;;36.08;7.13;;;;;;;0.99;100.00;100796.66;5071944;28;20020;-87
2021/12/07 03:41:16;;;;;;;38.08;8.07;;;;;;;0.96;100.00;100809.44;5071435;28;20037;-86
2021/12/07 03:43:42;;;;;;;37.78;7.20;;;;;;;0.89;100.00;100805.06;5069037;28;20361;-86
2021/12/07 03:46:07;;;;;;;37.63;7.57;;;;;;;0.91;100.00;100809.34;5064747;28;20029;-87
2021/12/07 03:48:33;;;;;;;38.88;7.75;;;;;;;0.96;100.00;100822.28;5064022;28;20055;-86
2021/12/07 03:50:59;;;;;;;45.60;7.65;;;;;;;1.00;100.00;100823.19;5068926;28;20017;-86
2021/12/07 03:53:25;;;;;;;48.00;7.88;;;;;;;0.98;100.00;100823.16;5071203;28;20032;-87
2021/12/07 03:55:50;;;;;;;47.70;8.05;;;;;;;0.95;100.00;100823.13;5066738;28;20031;-86
2021/12/07 03:58:16;;;;;;;41.33;7.32;;;;;;;0.89;100.00;100821.31;5066738;28;20025;-86
2021/12/07 04:00:45;;;;;;;33.67;7.32;;;;;;;0.89;100.00;100820.44;5070584;28;20096;-86
2021/12/07 04:03:14;;;;;;;31.50;6.95;;;;;;;0.85;100.00;100823.78;5064472;28;20377;-86
2021/12/07 04:05:45;;;;;;;34.75;6.60;;;;;;;0.83;100.00;100817.78;5065333;28;20027;-86
2021/12/07 04:08:17;;;;;;;26.52;6.28;;;;;;;0.71;100.00;100815.88;5069246;28;20016;-86
2021/12/07 04:10:44;;;;;;;33.72;6.25;;;;;;;0.69;100.00;100826.13;5070809;28;20045;-86
2021/12/07 04:13:09;;;;;;;34.67;6.63;;;;;;;0.64;100.00;100825.19;5058472;28;20029;-87
2021/12/07 04:15:35;;;;;;;37.70;6.75;;;;;;;0.66;100.00;100830.34;5056763;28;20532;-87
2021/12/07 04:18:01;;;;;;;30.60;6.30;;;;;;;0.60;100.00;100825.97;5060354;28;20523;-86
2021/12/07 04:20:26;;;;;;;41.60;6.45;;;;;;;0.58;100.00;100835.34;5067760;28;20024;-86
2021/12/07 04:22:52;;;;;;;38.55;7.22;;;;;;;0.53;100.00;100830.97;5060445;28;20112;-86
2021/12/07 04:25:17;;;;;;;31.30;5.85;;;;;;;0.52;100.00;100834.38;5072649;28;20116;-86
2021/12/07 04:27:43;;;;;;;38.05;5.53;;;;;;;0.55;100.00;100835.28;5074447;28;20021;-86
2021/12/07 04:30:27;;;;;;;41.30;6.70;;;;;;;0.59;100.00;100831.94;5075102;28;20103;-86
2021/12/07 04:32:53;;;;;;;30.77;6.35;;;;;;;0.55;100.00;100840.41;5073530;28;20031;-86
2021/12/07 04:35:20;;;;;;;31.73;5.78;;;;;;;0.59;100.00;100847.34;5067512;28;20476;-86
2021/12/07 04:37:45;;;;;;;37.95;6.75;;;;;;;0.60;100.00;100830.25;5065952;28;20036;-86
2021/12/07 04:40:15;;;;;;;27.65;5.40;;;;;;;0.65;100.00;100834.63;5073769;28;20029;-86
2021/12/07 04:42:41;;;;;;;30.02;5.65;;;;;;;0.79;100.00;100859.66;5073075;28;20078;-87
2021/12/07 04:45:11;;;;;;;39.13;5.90;;;;;;;0.78;100.00;100857.91;5074024;28;20523;-86
2021/12/07 04:58:15;;;;;;;45.65;6.35;;;;;;;0.53;100.00;100867.75;5068787;28;20039;-86
2021/12/07 05:00:40;;;;;;;27.52;5.63;;;;;;;0.47;100.00;100863.38;5072285;28;20032;-86
2021/12/07 05:03:10;;;;;;;34.30;5.47;;;;;;;0.44;100.00;100857.31;5071255;28;20025;-86
2021/12/07 05:05:42;;;;;;;37.10;4.97;;;;;;;0.38;100.00;100875.16;5070969;28;20025;-86
2021/12/07 05:08:11;;;;;;;32.92;5.45;;;;;;;0.34;100.00;100870.81;5075108;28;20460;-86
2021/12/07 05:11:00;;;;;;;22.38;5.40;;;;;;;0.29;100.00;100872.41;5073957;28;20074;-87
2021/12/07 05:13:29;;;;;;;35.33;5.75;;;;;;;0.28;100.00;100883.53;5069389;28;20055;-85
2021/12/07 05:16:05;;;;;;;44.60;6.47;;;;;;;0.19;100.00;100887.63;5054147;28;20029;-85
2021/12/07 05:18:58;;;;;;;28.13;6.45;;;;;;;0.18;100.00;100888.47;5054790;28;20048;-86
2021/12/07 05:24:14;;;;;;;40.00;8.05;;;;;;;0.09;100.00;100898.53;5084694;28;20043;-85
2021/12/07 05:40:05;;;;;;;39.53;12.23;;;;;;;-0.13;100.00;100922.88;5064521;28;20071;-86
2021/12/07 05:42:30;;;;;;;39.33;11.63;;;;;;;-0.14;100.00;100922.84;5060717;28;20430;-85
2021/12/07 05:44:56;;;;;;;46.55;12.82;;;;;;;-0.14;100.00;100933.09;5067574;28;20044;-85
2021/12/07 05:47:23;;;;;;;60.38;13.77;;;;;;;-0.15;100.00;100942.47;5054316;28;20025;-85
2021/12/07 05:49:48;;;;;;;38.97;13.10;;;;;;;-0.12;100.00;100942.53;5056245;28;20043;-85
2021/12/07 05:52:14;;;;;;;45.80;14.52;;;;;;;-0.09;100.00;100952.00;5073634;28;20534;-86
2021/12/07 05:54:39;;;;;;;41.70;14.48;;;;;;;-0.13;100.00;100958.75;5073805;28;20464;-85
2021/12/07 05:57:05;;;;;;;55.35;14.68;;;;;;;-0.15;100.00;100954.44;5072485;28;20064;-86
2021/12/07 05:59:31;;;;;;;60.13;14.73;;;;;;;-0.12;100.00;100964.75;5074018;28;20021;-85
2021/12/07 06:01:56;;;;;;;61.75;15.40;;;;;;;-0.14;100.00;100956.16;5087123;28;20032;-85
2021/12/07 06:04:21;;;;;;;60.67;16.27;;;;;;;-0.14;100.00;100967.25;5052878;28;20432;-85
2021/12/07 06:06:47;;;;;;;61.10;15.05;;;;;;;-0.21;100.00;100961.97;5060331;28;20027;-85
2021/12/07 06:09:12;;;;;;;53.00;15.00;;;;;;;-0.24;100.00;100957.63;5073487;28;20520;-85
2021/12/07 06:11:38;;;;;;;50.92;14.05;;;;;;;-0.28;100.00;100964.38;5070815;28;20052;-86
2021/12/07 06:14:03;;;;;;;49.78;14.93;;;;;;;-0.36;100.00;100960.81;5058170;28;20020;-85
2021/12/07 06:16:30;;;;;;;52.55;14.27;;;;;;;-0.41;100.00;100961.53;5064289;28;20039;-85
2021/12/07 06:18:56;;;;;;;56.92;13.20;;;;;;;-0.43;100.00;100958.06;5072336;28;20484;-85
2021/12/07 06:21:22;;;;;;;56.25;13.80;;;;;;;-0.45;100.00;100962.28;5066458;28;20032;-86
2021/12/07 06:23:47;;;;;;;51.42;14.50;;;;;;;-0.49;100.00;100966.47;5073519;28;20914;-85
2021/12/07 06:26:12;;;;;;;56.47;14.48;;;;;;;-0.47;100.00;100969.91;5071205;28;20081;-85
2021/12/07 06:28:38;;;;;;;50.08;13.60;;;;;;;-0.52;100.00;100966.41;5070413;28;20396;-86
2021/12/07 06:31:03;;;;;;;46.05;12.80;;;;;;;-0.58;100.00;100972.25;5060187;28;20028;-85
2021/12/07 06:33:29;;;;;;;55.78;15.73;;;;;;;-0.61;100.00;100972.16;5063696;28;20082;-85
2021/12/07 06:35:58;;;;;;;42.25;13.93;;;;;;;-0.57;100.00;100984.19;5053441;28;20037;-85
2021/12/07 06:38:29;;;;;;;58.13;14.93;;;;;;;-0.60;100.00;100970.47;5069708;28;20063;-85
2021/12/07 06:40:54;;;;;;;53.30;14.63;;;;;;;-0.59;100.00;100979.88;5069530;28;20032;-85
2021/12/07 06:43:21;;;;;;;46.85;15.27;;;;;;;-0.58;100.00;100979.06;5058446;28;20058;-84
2021/12/07 06:45:47;;;;;;;60.75;15.75;;;;;;;-0.56;100.00;100974.81;5053347;28;20033;-85
2021/12/07 06:48:12;;;;;;;70.43;16.25;;;;;;;-0.53;100.00;100980.03;5052645;28;20036;-85
2021/12/07 06:50:38;;;;;;;65.03;15.88;;;;;;;-0.54;100.00;100978.28;5060615;28;20413;-85
2021/12/07 06:53:04;;;;;;;59.65;16.35;;;;;;;-0.46;100.00;100971.66;5073267;28;20483;-85
2021/12/07 06:55:29;;;;;;;59.72;16.85;;;;;;;-0.44;100.00;100977.69;5066999;28;20480;-85
2021/12/07 06:57:55;;;;;;;65.88;18.95;;;;;;;-0.34;100.00;100983.88;5056499;28;20090;-84
2021/12/07 07:00:21;;;;;;;74.60;19.52;;;;;;;-0.31;100.00;100982.25;5051654;28;20060;-86
2021/12/07 07:02:46;;;;;;;64.80;17.65;;;;;;;-0.35;100.00;100977.03;5071336;28;20032;-85
2021/12/07 07:05:12;;;;;;;60.47;16.35;;;;;;;-0.39;100.00;100983.78;5064014;28;20017;-85
2021/12/07 07:07:39;;;;;;;60.88;18.92;;;;;;;-0.35;100.00;100984.72;5051568;28;20512;-86
2021/12/07 07:10:07;;;;;;;67.75;19.55;;;;;;;-0.32;100.00;100987.34;5053538;28;20029;-85
2021/12/07 07:12:32;;;;;;;64.65;19.02;;;;;;;-0.32;100.00;100989.91;5067638;28;20045;-84
2021/12/07 07:14:58;;;;;;;62.78;19.35;;;;;;;-0.36;100.00;100981.31;5072238;28;20039;-86
2021/12/07 07:17:23;;;;;;;62.38;19.20;;;;;;;-0.26;100.00;100990.06;5071404;28;20421;-85
2021/12/07 07:19:48;;;;;;;58.97;19.70;;;;;;;-0.31;100.00;100982.25;5070061;28;20032;-85
2021/12/07 07:22:13;;;;;;;72.78;19.48;;;;;;;-0.33;100.00;100988.16;5063988;28;20025;-86
2021/12/07 07:24:41;;;;;;;65.15;19.50;;;;;;;-0.37;100.00;100987.22;5071049;28;20032;-86
2021/12/07 07:27:06;;;;;;;70.20;18.63;;;;;;;-0.42;100.00;100987.97;5070695;28;20024;-85
2021/12/07 07:29:31;;;;;;;55.78;17.77;;;;;;;-0.44;100.00;100990.50;5071593;28;20431;-85
2021/12/07 07:31:57;;;;;;;78.30;18.70;;;;;;;-0.37;100.00;101010.28;5062081;28;20032;-85
2021/12/07 07:34:22;;;;;;;73.18;18.90;;;;;;;-0.31;100.00;101012.13;5064244;28;20024;-85
2021/12/07 07:36:48;;;;;;;67.20;20.08;;;;;;;-0.28;100.00;101004.53;5064091;28;20043;-85
2021/12/07 07:39:14;;;;;;;66.63;20.40;;;;;;;-0.17;100.00;101003.06;5064409;28;20028;-85
2021/12/07 07:41:40;;;;;;;66.13;20.67;;;;;;;-0.07;100.00;100999.00;5066519;28;20470;-84
2021/12/07 07:44:05;;;;;;;75.97;20.90;;;;;;;-0.03;100.00;100998.28;5070437;28;20047;-85
2021/12/07 07:46:30;;;;;;;77.68;22.48;;;;;;;0.05;100.00;101014.66;5075931;28;20032;-86
2021/12/07 07:48:56;;;;;;;78.05;22.92;;;;;;;0.13;100.00;101005.47;5054827;28;20032;-85
2021/12/07 07:51:21;;;;;;;77.50;21.35;;;;;;;0.17;100.00;101003.81;5058084;28;20412;-85
2021/12/07 07:53:48;;;;;;;81.53;22.02;;;;;;;0.20;100.00;100991.94;5070942;28;20419;-85
2021/12/07 07:56:14;;;;;;;75.60;22.05;;;;;;;0.15;100.00;100990.97;5071962;28;20108;-85
2021/12/07 07:58:39;;;;;;;74.63;21.63;;;;;;;0.13;100.00;100992.66;5070757;28;20056;-85
2021/12/07 08:01:04;;;;;;;67.63;20.48;;;;;;;-0.01;100.00;100966.69;5072122;28;20562;-85
2021/12/07 08:03:30;;;;;;;65.15;19.48;;;;;;;0.08;100.00;100988.25;5071049;28;20476;-85
2021/12/07 08:05:55;;;;;;;68.43;18.85;;;;;;;0.01;100.00;100971.88;5065316;28;20111;-85
2021/12/07 08:08:21;;;;;;;70.07;20.30;;;;;;;0.10;100.00;100994.25;5051772;28;20090;-86
2021/12/07 08:10:47;;;;;;;67.47;20.50;;;;;;;0.10;100.00;101004.50;5051464;28;20040;-85
2021/12/07 08:13:14;;;;;;;68.22;20.50;;;;;;;0.10;100.00;101002.84;5053323;28;20025;-85
2021/12/07 08:15:42;;;;;;;74.70;20.08;;;;;;;0.12;100.00;101001.16;5058647;28;20028;-85
2021/12/07 08:18:09;;;;;;;71.78;17.35;;;;;;;0.20;100.00;101014.16;5067087;28;20049;-85
2021/12/07 08:20:36;;;;;;;63.83;17.25;;;;;;;0.24;100.00;101018.50;5053272;28;20037;-85
2021/12/07 08:23:04;;;;;;;65.28;18.38;;;;;;;0.23;100.00;101017.66;5060575;28;20441;-86
2021/12/07 08:25:33;;;;;;;68.60;17.67;;;;;;;0.28;100.00;101022.00;5069808;28;20510;-85
2021/12/07 08:27:58;;;;;;;54.35;17.30;;;;;;;0.30;100.00;101038.28;5071967;28;20028;-85
2021/12/07 08:30:23;;;;;;;61.45;17.98;;;;;;;0.33;100.00;101028.09;5063166;28;20051;-85
2021/12/07 08:32:49;;;;;;;57.45;17.13;;;;;;;0.32;100.00;101031.47;5053481;28;20032;-79
2021/12/07 08:35:16;;;;;;;57.95;19.52;;;;;;;0.34;100.00;101040.09;5055051;28;20036;-84
2021/12/07 08:37:44;;;;;;;51.90;16.02;;;;;;;0.33;100.00;101035.78;5065239;28;20024;-84
2021/12/07 08:40:11;;;;;;;53.33;15.93;;;;;;;0.27;100.00;101028.81;5061687;28;20377;-84
2021/12/07 08:42:37;;;;;;;51.30;15.10;;;;;;;0.26;100.00;101039.91;5069840;28;20070;-85
2021/12/07 08:45:04;;;;;;;49.40;14.70;;;;;;;0.25;100.00;101039.88;5067201;28;20407;-84
2021/12/07 08:47:30;;;;;;;44.90;15.35;;;;;;;0.28;100.00;101037.38;5070471;28;20024;-84
2021/12/07 08:49:55;;;;;;;49.33;14.38;;;;;;;0.26;100.00;101021.09;5071615;28;20036;-85
2021/12/07 08:52:21;;;;;;;60.03;14.80;;;;;;;0.33;100.00;101021.28;5070018;28;20376;-85
2021/12/07 08:59:55;;;;;;;50.63;14.52;;;;;;;0.42;100.00;101007.75;5070848;28;20062;-84
2021/12/07 09:02:23;;;;;;;49.05;15.60;;;;;;;0.47;100.00;101001.88;5070952;28;20079;-85
2021/12/07 09:04:50;;;;;;;53.80;14.90;;;;;;;0.49;100.00;100996.81;5070700;28;20356;-85
2021/12/07 09:07:15;;;;;;;49.92;14.65;;;;;;;0.54;100.00;100992.63;5050835;28;20060;-85
2021/12/07 09:09:43;;;;;;;53.15;14.43;;;;;;;0.59;100.00;100992.69;5071653;28;20503;-85
2021/12/07 09:12:09;;;;;;;59.67;16.08;;;;;;;0.65;100.00;100996.28;5074155;28;20492;-86
2021/12/07 09:14:35;;;;;;;55.33;16.42;;;;;;;0.64;100.00;100984.25;5072874;28;20036;-86
2021/12/07 09:17:02;;;;;;;59.78;16.35;;;;;;;0.70;100.00;100991.22;5070564;28;20237;-85
2021/12/07 09:19:28;;;;;;;49.90;15.60;;;;;;;0.70;100.00;100992.06;5067459;28;20531;-85
2021/12/07 09:21:54;;;;;;;40.38;14.50;;;;;;;0.71;100.00;100995.50;5059259;28;20028;-85
2021/12/07 09:24:19;;;;;;;52.75;14.38;;;;;;;0.71;100.00;100995.50;5074554;28;20032;-86
2021/12/07 09:26:44;;;;;;;54.08;14.57;;;;;;;0.72;100.00;100996.38;5074341;28;20059;-86
2021/12/07 09:29:10;;;;;;;52.83;14.73;;;;;;;0.76;100.00;100990.47;5072113;28;20063;-85
2021/12/07 09:31:36;;;;;;;46.90;13.90;;;;;;;0.74;100.00;100993.00;5073861;28;20064;-85
2021/12/07 09:34:04;;;;;;;47.00;14.80;;;;;;;0.81;100.00;100996.53;5070391;28;20476;-86
2021/12/07 09:36:30;;;;;;;50.92;15.10;;;;;;;0.85;100.00;100985.50;5053268;28;20025;-85
2021/12/07 09:38:56;;;;;;;47.30;13.98;;;;;;;0.81;100.00;100994.84;5068628;28;20112;-86
2021/12/07 09:41:21;;;;;;;49.00;14.73;;;;;;;0.86;100.00;100989.81;5073181;28;20085;-85
2021/12/07 09:43:47;;;;;;;63.08;14.63;;;;;;;0.85;100.00;100983.81;5059602;28;20057;-86
2021/12/07 09:46:15;;;;;;;46.10;14.90;;;;;;;0.94;100.00;100998.50;5073449;28;20064;-86
2021/12/07 09:48:42;;;;;;;50.95;14.80;;;;;;;0.97;100.00;100988.28;5073385;28;20032;-86
2021/12/07 09:51:09;;;;;;;50.33;14.50;;;;;;;1.01;100.00;100981.50;5066927;28;20376;-85
2021/12/07 09:53:35;;;;;;;54.85;14.52;;;;;;;1.06;100.00;100993.59;5061415;28;20021;-85
2021/12/07 09:56:03;;;;;;;54.60;13.80;;;;;;;1.08;100.00;100997.06;5070221;28;20397;-85
2021/12/07 09:58:28;;;;;;;52.10;12.98;;;;;;;1.09;100.00;100987.66;5073627;28;20119;-86
2021/12/07 10:00:55;;;;;;;52.13;13.98;;;;;;;1.13;100.00;100986.84;5074006;28;20031;-86
2021/12/07 10:03:21;;;;;;;46.72;14.13;;;;;;;1.09;100.00;100970.53;5072551;28;20039;-88
2021/12/07 10:05:47;;;;;;;34.42;12.98;;;;;;;1.17;100.00;100981.78;5068050;28;20028;-87
2021/12/07 10:08:13;;;;;;;50.55;14.50;;;;;;;1.17;100.00;100976.66;5073686;28;20024;-86
2021/12/07 10:10:48;;;;;;;40.00;12.82;;;;;;;1.17;100.00;100975.78;5071877;28;20475;-86
2021/12/07 10:13:14;;;;;;;43.17;12.95;;;;;;;1.23;100.00;100981.03;5064829;28;20047;-87
2021/12/07 10:15:41;;;;;;;44.10;12.90;;;;;;;1.28;100.00;100973.44;5071493;28;20056;-86
2021/12/07 10:18:17;;;;;;;45.20;12.82;;;;;;;1.30;100.00;100961.44;5071829;28;20028;-86
2021/12/07 10:20:53;;;;;;;42.08;13.32;;;;;;;1.29;100.00;100952.03;5071296;28;20032;-87
2021/12/07 10:23:18;;;;;;;34.08;12.38;;;;;;;1.34;100.00;100956.41;5060302;28;20044;-86
2021/12/07 10:25:47;;;;;;;37.05;13.00;;;;;;;1.37;100.00;100963.28;5053140;28;20488;-86
2021/12/07 10:28:45;;;;;;;42.15;12.65;;;;;;;1.38;100.00;100959.88;5058266;28;20073;-86
2021/12/07 10:31:10;;;;;;;43.33;12.65;;;;;;;1.43;100.00;100963.38;5068423;28;20077;-86
2021/12/07 10:33:44;;;;;;;44.78;12.02;;;;;;;1.41;100.00;100959.94;5072441;28;20546;-87
2021/12/07 10:36:18;;;;;;;45.08;12.40;;;;;;;1.51;100.00;100955.81;5062265;28;20035;-85
2021/12/07 10:38:53;;;;;;;50.20;14.25;;;;;;;1.51;100.00;100946.38;5074776;28;20029;-85
2021/12/07 10:41:22;;;;;;;41.03;13.30;;;;;;;1.54;100.00;100943.88;5062878;28;20035;-86
2021/12/07 10:44:07;;;;;;;38.80;12.55;;;;;;;1.56;100.00;100939.59;5070561;28;20127;-86
2021/12/07 10:46:42;;;;;;;40.33;12.90;;;;;;;1.59;100.00;100933.66;5067092;28;20484;-86
2021/12/07 10:49:32;;;;;;;46.90;12.98;;;;;;;1.63;100.00;100925.13;5072682;28;20031;-85
2021/12/07 10:52:24;;;;;;;47.92;12.68;;;;;;;1.64;100.00;100929.44;5072641;28;20036;-86
2021/12/07 10:55:15;;;;;;;43.08;14.32;;;;;;;1.70;100.00;100928.66;5071312;28;20097;-85
2021/12/07 10:57:51;;;;;;;41.90;13.63;;;;;;;1.75;100.00;100915.03;5055498;28;20025;-83
2021/12/07 11:00:44;;;;;;;47.47;14.48;;;;;;;1.78;100.00;100907.38;5066696;28;20119;-83
2021/12/07 11:03:17;;;;;;;38.40;14.18;;;;;;;1.80;100.00;100904.81;5056654;28;20116;-83
2021/12/07 11:05:53;;;;;;;47.65;13.65;;;;;;;1.81;100.00;100888.56;5069857;28;20086;-83
2021/12/07 11:08:21;;;;;;;39.25;14.23;;;;;;;1.86;100.00;100877.50;5071268;28;20016;-83
2021/12/07 11:10:49;;;;;;;43.75;13.43;;;;;;;1.88;100.00;100868.06;5063414;28;20054;-83
2021/12/07 11:13:19;;;;;;;40.58;14.57;;;;;;;1.92;100.00;100870.69;5063127;28;20028;-83
2021/12/07 11:15:51;;;;;;;34.85;12.40;;;;;;;1.88;100.00;100867.22;5071679;28;20056;-82
2021/12/07 11:18:21;;;;;;;38.03;13.55;;;;;;;1.92;100.00;100863.81;5072180;28;20028;-83
2021/12/07 11:20:46;;;;;;;43.05;15.15;;;;;;;1.93;100.00;100867.25;5067840;28;20037;-84
2021/12/07 11:23:28;;;;;;;40.30;13.82;;;;;;;1.94;100.00;100869.00;5071513;28;20035;-83
2021/12/07 11:31:16;;;;;;;46.92;15.98;;;;;;;1.98;100.00;100848.47;5056365;28;20044;-83
2021/12/07 11:33:41;;;;;;;49.05;14.50;;;;;;;2.01;100.00;100853.66;5070740;28;20495;-83
2021/12/07 11:36:29;;;;;;;46.17;14.85;;;;;;;2.02;100.00;100845.09;5066239;28;20032;-83
2021/12/07 11:38:56;;;;;;;43.33;14.55;;;;;;;2.05;100.00;100845.13;5071100;28;20024;-84
2021/12/07 11:41:32;;;;;;;34.83;12.85;;;;;;;2.14;100.00;100848.66;5066073;28;20512;-83
2021/12/07 11:44:09;;;;;;;37.63;12.73;;;;;;;2.17;100.00;100846.13;5064248;28;20379;-83
2021/12/07 11:46:38;;;;;;;34.78;10.82;;;;;;;2.20;100.00;100841.88;5072052;28;20020;-83
2021/12/07 11:49:24;;;;;;;32.03;10.63;;;;;;;2.24;100.00;100837.63;5071143;28;20017;-84
2021/12/07 11:51:54;;;;;;;36.83;10.68;;;;;;;2.26;100.00;100830.78;5054095;28;20090;-84
2021/12/07 11:54:23;;;;;;;35.50;10.18;;;;;;;2.13;100.00;100795.50;5071695;28;20025;-83
2021/12/07 11:56:48;;;;;;;26.50;9.02;;;;;;;2.34;100.00;100824.00;5066215;28;20035;-84
2021/12/07 11:59:15;;;;;;;24.33;9.20;;;;;;;2.41;100.00;100819.78;5067743;28;20024;-83
2021/12/07 12:01:42;;;;;;;29.27;8.85;;;;;;;2.46;100.00;100813.84;5065593;28;20029;-84
2021/12/07 12:04:07;;;;;;;31.02;8.18;;;;;;;2.49;100.00;100813.88;5059721;28;20056;-84
2021/12/07 12:06:33;;;;;;;20.38;6.35;;;;;;;2.53;100.00;100807.03;5055609;28;20053;-83
2021/12/07 12:09:00;;;;;;;22.38;7.22;;;;;;;2.64;100.00;100807.97;5052161;28;20021;-84
2021/12/07 12:12:07;;;;;;;21.13;7.45;;;;;;;2.68;100.00;100803.69;5050698;28;20041;-84
2021/12/07 12:14:52;;;;;;;25.77;6.95;;;;;;;2.74;100.00;100798.59;5050959;28;20059;-84
2021/12/07 12:17:40;;;;;;;24.40;6.95;;;;;;;2.84;100.00;100796.97;5069663;28;20057;-84
2021/12/07 12:20:11;;;;;;;21.08;6.10;;;;;;;2.94;100.00;100791.91;5077256;28;20122;-84
2021/12/07 12:22:42;;;;;;;18.13;5.65;;;;;;;2.98;100.00;100764.47;5091740;28;20376;-84
2021/12/07 12:25:11;;;;;;;20.45;6.18;;;;;;;3.08;100.00;100775.69;5070003;28;20483;-83
2021/12/07 12:27:38;;;;;;;19.23;4.82;;;;;;;3.22;100.00;100772.31;5071430;28;20024;-85
2021/12/07 12:30:47;;;;;;;21.35;4.43;;;;;;;3.29;100.00;100763.75;5066059;28;20477;-85
2021/12/07 12:33:13;;;;;;;15.02;4.43;;;;;;;3.36;100.00;100756.06;5058937;28;20068;-83
2021/12/07 12:35:42;;;;;;;18.75;5.00;;;;;;;3.43;100.00;100756.13;5071157;28;20082;-84
2021/12/07 12:38:25;;;;;;;13.20;3.90;;;;;;;3.46;100.00;100748.38;5070783;28;20472;-84
2021/12/07 12:41:11;;;;;;;18.57;4.97;;;;;;;3.47;100.00;100742.38;5071490;28;20033;-85
2021/12/07 12:43:52;;;;;;;14.27;3.65;;;;;;;3.51;100.00;100738.09;5065018;28;20293;-85
2021/12/07 12:46:25;;;;;;;16.10;3.58;;;;;;;3.53;100.00;100728.63;5071849;28;20472;-85
2021/12/07 12:48:53;;;;;;;16.43;3.90;;;;;;;3.52;100.00;100712.31;5059716;28;20458;-85